createdAt,value
2022-09-06T00:01:13.121Z,57.50
2022-09-06T00:03:41.992Z,57.60
2022-09-06T00:06:13.579Z,57.70
2022-09-06T00:08:43.701Z,57.90
2022-09-06T00:11:13.929Z,58.10
2022-09-06T00:13:42.451Z,58.30
2022-09-06T00:16:13.737Z,58.40
2022-09-06T00:18:42.868Z,58.50
2022-09-06T00:21:18.711Z,58.70
2022-09-06T00:23:47.344Z,58.80
2022-09-06T00:26:17.455Z,58.90
2022-09-06T00:28:46.140Z,59.00
2022-09-06T00:31:17.222Z,59.00
2022-09-06T00:33:45.707Z,59.10
2022-09-06T00:36:14.628Z,59.20
2022-09-06T00:38:43.833Z,59.30
2022-09-06T00:41:15.033Z,59.40
2022-09-06T00:43:45.285Z,59.50
2022-09-06T00:46:19.019Z,59.70
2022-09-06T00:48:50.347Z,59.80
2022-09-06T00:51:21.920Z,59.90
2022-09-06T00:53:51.364Z,60.00
2022-09-06T00:56:19.787Z,60.00
2022-09-06T00:58:50.810Z,60.10
2022-09-06T01:01:19.298Z,60.20
2022-09-06T01:03:47.769Z,60.30
2022-09-06T01:06:27.097Z,60.40
2022-09-06T01:09:08.005Z,60.70
2022-09-06T01:12:17.916Z,60.90
2022-09-06T01:15:06.035Z,61.00
2022-09-06T01:17:51.182Z,61.10
2022-09-06T01:20:42.849Z,61.70
2022-09-06T01:23:54.038Z,61.20
2022-09-06T01:27:07.580Z,61.20
2022-09-06T01:29:44.592Z,61.80
2022-09-06T01:32:25.008Z,62.70
2022-09-06T01:35:03.803Z,63.10
2022-09-06T01:42:34.162Z,63.30
2022-09-06T01:45:09.639Z,63.30
2022-09-06T01:47:49.935Z,63.20
2022-09-06T01:50:55.489Z,63.20
2022-09-06T01:53:43.144Z,63.50
2022-09-06T01:56:23.420Z,63.60
2022-09-06T01:59:15.101Z,64.10
2022-09-06T02:01:57.694Z,64.50
2022-09-06T02:04:32.963Z,64.80
2022-09-06T02:07:09.027Z,65.00
2022-09-06T02:09:42.037Z,65.30
2022-09-06T02:12:14.244Z,65.70
2022-09-06T02:14:50.816Z,66.00
2022-09-06T02:17:27.021Z,66.10
2022-09-06T02:20:00.615Z,66.20
2022-09-06T02:22:34.227Z,66.20
2022-09-06T02:25:04.340Z,66.40
2022-09-06T02:27:33.645Z,66.50
2022-09-06T02:30:03.013Z,66.80
2022-09-06T02:32:39.006Z,66.90
2022-09-06T02:35:17.627Z,67.10
2022-09-06T02:37:46.539Z,67.40
2022-09-06T02:42:43.568Z,68.00
2022-09-06T02:45:12.365Z,68.30
2022-09-06T02:47:42.112Z,68.40
2022-09-06T02:55:09.229Z,69.00
2022-09-06T02:57:37.615Z,69.20
2022-09-06T03:00:07.660Z,69.70
2022-09-06T03:02:36.137Z,71.20
2022-09-06T03:05:06.680Z,72.90
2022-09-06T03:07:35.091Z,75.10
2022-09-06T03:10:03.553Z,77.40
2022-09-06T03:15:00.640Z,83.90
2022-09-06T03:17:28.987Z,87.20
2022-09-06T03:22:27.969Z,91.00
2022-09-06T03:27:25.044Z,92.70
2022-09-06T03:32:22.028Z,93.90
2022-09-06T03:37:19.699Z,94.80
2022-09-06T03:39:49.441Z,95.20
2022-09-06T03:44:46.486Z,95.80
2022-09-06T03:47:18.854Z,96.00
2022-09-06T03:52:17.176Z,96.40
2022-09-06T03:57:15.614Z,96.90
2022-09-06T03:59:44.006Z,97.10
2022-09-06T04:07:09.780Z,97.70
2022-09-06T04:09:38.196Z,97.80
2022-09-06T04:12:06.891Z,97.90
2022-09-06T04:14:36.591Z,98.00
2022-09-06T04:22:02.884Z,98.40
2022-09-06T04:29:29.003Z,98.50
2022-09-06T04:31:58.772Z,98.50
2022-09-06T04:34:27.129Z,98.60
2022-09-06T04:36:55.472Z,98.70
2022-09-06T04:39:23.865Z,98.80
2022-09-06T04:41:52.259Z,98.80
2022-09-06T04:44:20.695Z,98.90
2022-09-06T04:49:19.092Z,99.10
2022-09-06T04:54:16.013Z,99.20
2022-09-06T04:59:12.931Z,99.30
2022-09-06T05:01:41.266Z,99.30
2022-09-06T05:06:41.292Z,99.40
2022-09-06T05:09:09.899Z,99.50
2022-09-06T05:11:38.552Z,99.50
2022-09-06T05:14:06.950Z,99.60
2022-09-06T05:16:35.347Z,99.60
2022-09-06T05:19:03.876Z,99.70
2022-09-06T05:21:32.191Z,99.80
2022-09-06T05:24:01.936Z,99.80
2022-09-06T05:26:30.300Z,99.80
2022-09-06T05:28:58.726Z,99.90
2022-09-06T05:31:29.642Z,99.90
2022-09-06T05:33:59.269Z,99.90
2022-09-06T05:36:28.883Z,99.90
2022-09-06T05:38:58.777Z,99.90
2022-09-06T05:41:28.968Z,99.90
2022-09-06T05:43:57.362Z,99.90
2022-09-06T05:46:26.594Z,99.90
2022-09-06T05:48:56.089Z,99.90
2022-09-06T05:51:24.455Z,99.90
2022-09-06T05:56:22.321Z,99.90
2022-09-06T05:58:52.036Z,99.90
2022-09-06T06:01:22.424Z,99.90
2022-09-06T06:03:55.340Z,99.90
2022-09-06T06:06:25.044Z,99.90
2022-09-06T06:08:53.527Z,99.90
2022-09-06T06:11:22.398Z,99.90
2022-09-06T06:13:52.274Z,99.90
2022-09-06T06:16:23.994Z,99.90
2022-09-06T06:18:53.027Z,99.90
2022-09-06T06:21:23.622Z,99.90
2022-09-06T06:23:54.851Z,99.90
2022-09-06T06:26:23.924Z,99.90
2022-09-06T06:28:54.349Z,99.90
2022-09-06T06:31:23.843Z,99.90
2022-09-06T06:33:52.996Z,99.90
2022-09-06T06:36:24.336Z,99.90
2022-09-06T06:38:55.486Z,99.90
2022-09-06T06:41:26.636Z,99.90
2022-09-06T06:43:58.412Z,99.90
2022-09-06T06:46:29.395Z,99.90
2022-09-06T06:51:29.332Z,99.90
2022-09-06T06:53:58.164Z,99.90
2022-09-06T06:56:29.141Z,99.90
2022-09-06T06:59:01.650Z,99.90
2022-09-06T07:01:32.012Z,99.90
2022-09-06T07:04:01.008Z,99.90
2022-09-06T07:09:19.988Z,99.90
2022-09-06T07:11:49.644Z,99.90
2022-09-06T07:14:20.038Z,99.90
2022-09-06T07:16:49.363Z,99.90
2022-09-06T07:29:57.540Z,99.90
2022-09-06T07:32:25.993Z,99.70
2022-09-06T07:37:22.960Z,99.30
2022-09-06T07:39:51.618Z,99.40
2022-09-06T07:42:20.298Z,99.80
2022-09-06T07:44:48.746Z,99.70
2022-09-06T07:53:15.229Z,98.50
2022-09-06T07:55:44.314Z,97.00
2022-09-06T07:58:12.698Z,95.70
2022-09-06T08:03:11.736Z,95.30
2022-09-06T08:11:17.848Z,93.90
2022-09-06T08:13:49.453Z,93.90
2022-09-06T08:16:17.998Z,94.20
2022-09-06T08:18:52.868Z,94.10
2022-09-06T08:23:54.458Z,92.70
2022-09-06T08:26:24.673Z,91.70
2022-09-06T08:28:56.169Z,91.40
2022-09-06T08:31:24.943Z,90.20
2022-09-06T08:33:55.548Z,88.40
2022-09-06T08:36:27.141Z,87.00
2022-09-06T08:38:55.790Z,85.70
2022-09-06T08:41:28.840Z,84.50
2022-09-06T08:46:57.216Z,83.20
2022-09-06T08:49:30.740Z,82.70
2022-09-06T08:52:45.287Z,81.10
2022-09-06T08:55:31.461Z,81.40
2022-09-06T08:58:22.065Z,80.40
2022-09-06T09:00:58.393Z,80.40
2022-09-06T09:03:33.405Z,79.20
2022-09-06T09:06:05.456Z,77.10
2022-09-06T09:08:43.026Z,76.60
2022-09-06T09:11:18.307Z,76.00
2022-09-06T09:13:56.104Z,74.40
2022-09-06T09:16:25.118Z,73.30
2022-09-06T09:18:56.798Z,72.50
2022-09-06T09:21:30.789Z,71.50
2022-09-06T09:24:03.972Z,71.00
2022-09-06T09:26:41.645Z,69.30
2022-09-06T09:29:12.873Z,68.00
2022-09-06T09:31:43.914Z,67.50
2022-09-06T09:34:15.493Z,66.60
2022-09-06T09:39:39.706Z,66.00
2022-09-06T09:42:10.023Z,65.30
2022-09-06T09:44:44.241Z,64.20
2022-09-06T09:47:28.376Z,63.50
2022-09-06T09:49:56.809Z,63.00
2022-09-06T09:52:29.392Z,62.50
2022-09-06T09:55:01.708Z,61.60
2022-09-06T09:57:33.225Z,61.20
2022-09-06T10:00:02.320Z,61.10
2022-09-06T10:02:35.701Z,60.80
2022-09-06T10:05:09.304Z,59.90
2022-09-06T10:07:45.832Z,59.30
2022-09-06T10:10:17.503Z,58.70
2022-09-06T10:12:45.793Z,58.10
2022-09-06T10:15:35.036Z,57.40
2022-09-06T10:20:45.085Z,56.50
2022-09-06T10:26:20.070Z,55.20
2022-09-06T10:31:54.345Z,54.00
2022-09-06T10:34:58.133Z,53.30
2022-09-06T10:37:57.154Z,53.10
2022-09-06T10:40:34.835Z,52.80
2022-09-06T10:43:08.884Z,52.00
2022-09-06T10:45:47.776Z,51.70
2022-09-06T10:48:25.039Z,51.50
2022-09-06T10:50:57.129Z,50.70
2022-09-06T10:53:44.585Z,50.50
2022-09-06T10:56:21.813Z,50.10
2022-09-06T11:02:02.257Z,49.80
2022-09-06T11:07:31.741Z,48.70
2022-09-06T11:10:07.801Z,48.40
2022-09-06T11:12:45.001Z,48.40
2022-09-06T11:15:16.405Z,48.10
2022-09-06T11:17:52.272Z,47.50
2022-09-06T11:20:32.125Z,47.20
2022-09-06T11:23:34.402Z,47.10
2022-09-06T11:26:31.900Z,46.30
2022-09-06T11:29:07.219Z,46.10
2022-09-06T11:37:24.679Z,46.10
2022-09-06T11:40:29.481Z,45.30
2022-09-06T11:43:18.836Z,44.80
2022-09-06T11:45:51.559Z,44.60
2022-09-06T11:49:02.529Z,44.50
2022-09-06T11:51:38.243Z,44.60
2022-09-06T11:54:43.909Z,44.60
2022-09-06T11:57:17.846Z,43.50
2022-09-06T12:00:00.437Z,43.60
2022-09-06T12:02:38.760Z,43.60
2022-09-06T12:05:27.820Z,43.30
2022-09-06T12:08:42.526Z,42.80
2022-09-06T12:11:35.225Z,42.40
2022-09-06T12:14:06.562Z,42.40
2022-09-06T12:17:25.798Z,42.30
2022-09-06T12:20:04.195Z,42.60
2022-09-06T12:23:03.276Z,42.00
2022-09-06T12:25:57.527Z,41.90
2022-09-06T12:28:42.419Z,42.00
2022-09-06T12:31:41.345Z,41.90
2022-09-06T12:34:20.407Z,41.70
2022-09-06T12:36:56.308Z,41.80
2022-09-06T12:39:25.591Z,41.80
2022-09-06T12:41:58.087Z,41.60
2022-09-06T12:44:34.588Z,41.40
2022-09-06T12:47:18.648Z,41.30
2022-09-06T12:49:47.034Z,41.10
2022-09-06T12:52:20.743Z,40.80
2022-09-06T12:54:51.343Z,40.50
2022-09-06T12:57:23.024Z,40.10
2022-09-06T12:59:54.770Z,40.10
2022-09-06T13:02:32.741Z,39.90
2022-09-06T13:05:06.461Z,39.70
2022-09-06T13:07:40.645Z,39.40
2022-09-06T13:10:09.439Z,39.80
2022-09-06T13:12:41.492Z,39.30
2022-09-06T13:15:15.731Z,39.10
2022-09-06T13:17:43.847Z,39.60
2022-09-06T13:20:16.077Z,38.70
2022-09-06T13:22:49.239Z,38.40
2022-09-06T13:25:26.081Z,38.70
2022-09-06T13:27:57.968Z,38.70
2022-09-06T13:30:37.245Z,39.10
2022-09-06T13:33:08.308Z,39.20
2022-09-06T13:35:39.429Z,39.30
2022-09-06T13:38:34.546Z,39.20
2022-09-06T13:41:14.653Z,39.00
2022-09-06T13:43:47.977Z,38.90
2022-09-06T13:46:16.298Z,38.80
2022-09-06T13:48:45.185Z,38.60
2022-09-06T13:51:13.915Z,38.40
2022-09-06T13:53:43.682Z,38.50
2022-09-06T13:58:40.444Z,38.70
2022-09-06T14:03:42.102Z,38.90
2022-09-06T14:06:11.362Z,39.00
2022-09-06T14:09:05.365Z,38.80
2022-09-06T14:11:30.101Z,39.00
2022-09-06T14:18:56.323Z,40.80
2022-09-06T14:21:25.275Z,40.40
2022-09-06T14:26:24.049Z,39.80
2022-09-06T14:28:53.675Z,39.60
2022-09-06T14:31:26.112Z,39.50
2022-09-06T14:33:55.640Z,39.50
2022-09-06T14:36:27.237Z,39.50
2022-09-06T14:38:57.205Z,39.40
2022-09-06T14:43:58.690Z,39.00
2022-09-06T14:46:29.073Z,39.00
2022-09-06T14:48:59.871Z,39.00
2022-09-06T14:51:28.788Z,38.80
2022-09-06T14:54:00.037Z,38.90
2022-09-06T14:56:28.663Z,38.40
2022-09-06T14:58:59.938Z,38.30
2022-09-06T15:01:37.088Z,38.20
2022-09-06T15:04:09.708Z,37.80
2022-09-06T15:06:41.090Z,37.30
2022-09-06T15:09:11.404Z,37.10
2022-09-06T15:11:43.713Z,36.40
2022-09-06T15:14:20.857Z,36.00
2022-09-06T15:16:55.999Z,35.60
2022-09-06T15:19:26.571Z,35.30
2022-09-06T15:21:55.386Z,35.10
2022-09-06T15:24:23.980Z,35.00
2022-09-06T15:26:52.602Z,34.80
2022-09-06T15:29:22.593Z,35.00
2022-09-06T15:31:51.806Z,35.20
2022-09-06T15:34:21.733Z,35.80
2022-09-06T15:36:52.808Z,36.40
2022-09-06T15:39:21.369Z,36.90
2022-09-06T15:41:51.793Z,37.30
2022-09-06T15:44:22.315Z,37.80
2022-09-06T15:46:53.914Z,38.30
2022-09-06T15:49:28.058Z,38.80
2022-09-06T15:51:57.328Z,39.20
2022-09-06T15:54:46.185Z,39.90
2022-09-06T15:57:16.297Z,40.10
2022-09-06T15:59:46.518Z,40.20
2022-09-06T16:02:15.686Z,40.50
2022-09-06T16:04:44.101Z,40.50
2022-09-06T16:07:12.681Z,40.20
2022-09-06T16:09:41.355Z,39.90
2022-09-06T16:12:10.816Z,39.60
2022-09-06T16:14:39.295Z,39.70
2022-09-06T16:17:09.150Z,40.00
2022-09-06T16:19:37.590Z,40.50
2022-09-06T16:22:06.037Z,40.90
2022-09-06T16:27:03.311Z,41.50
2022-09-06T16:29:31.847Z,41.80
2022-09-06T16:32:00.592Z,42.10
2022-09-06T16:34:30.429Z,42.10
2022-09-06T16:37:00.285Z,42.30
2022-09-06T16:39:28.722Z,42.40
2022-09-06T16:41:57.119Z,42.60
2022-09-06T16:44:26.111Z,42.90
2022-09-06T16:46:56.015Z,43.10
2022-09-06T16:49:24.947Z,43.20
2022-09-06T16:51:54.756Z,43.40
2022-09-06T16:54:23.263Z,43.60
2022-09-06T16:59:21.678Z,43.80
2022-09-06T17:01:51.412Z,44.10
2022-09-06T17:06:48.955Z,44.50
2022-09-06T17:09:20.479Z,44.50
2022-09-06T17:11:49.967Z,44.60
2022-09-06T17:14:19.127Z,44.70
2022-09-06T17:17:06.841Z,44.90
2022-09-06T17:19:41.189Z,45.00
2022-09-06T17:22:11.108Z,45.20
2022-09-06T17:24:41.774Z,45.40
2022-09-06T17:29:40.059Z,45.80
2022-09-06T17:32:10.156Z,45.90
2022-09-06T17:34:39.432Z,46.10
2022-09-06T17:37:08.193Z,46.30
2022-09-06T17:39:36.887Z,46.50
2022-09-06T17:42:07.597Z,46.80
2022-09-06T17:44:36.244Z,47.00
2022-09-06T17:47:13.775Z,47.40
2022-09-06T17:49:43.239Z,47.70
2022-09-06T17:54:40.998Z,48.20
2022-09-06T17:57:10.828Z,48.40
2022-09-06T17:59:39.472Z,48.60
2022-09-06T18:02:08.384Z,48.90
2022-09-06T18:04:37.020Z,49.30
2022-09-06T18:07:05.524Z,49.70
2022-09-06T18:09:34.214Z,50.00
2022-09-06T18:12:02.759Z,50.30
2022-09-06T18:14:32.596Z,50.70
2022-09-06T18:17:01.127Z,51.00
2022-09-06T18:19:29.981Z,51.30
2022-09-06T18:21:58.380Z,51.70
2022-09-06T18:24:27.101Z,52.00
2022-09-06T18:26:55.629Z,52.20
2022-09-06T18:29:24.314Z,52.50
2022-09-06T18:31:54.515Z,52.70
2022-09-06T18:34:23.099Z,52.90
2022-09-06T18:36:51.540Z,53.10
2022-09-06T18:39:20.373Z,53.30
2022-09-06T18:42:01.373Z,53.40
2022-09-06T18:44:32.358Z,53.50
2022-09-06T18:47:05.740Z,53.60
2022-09-06T18:49:35.337Z,53.70
2022-09-06T18:52:06.001Z,53.80
2022-09-06T18:54:35.818Z,53.90
2022-09-06T18:57:04.427Z,54.00
2022-09-06T18:59:32.959Z,54.20
2022-09-06T19:02:02.830Z,54.20
2022-09-06T19:04:31.526Z,54.40
2022-09-06T19:07:03.845Z,54.50
2022-09-06T19:12:00.960Z,54.60
2022-09-06T19:14:29.507Z,54.80
2022-09-06T19:16:58.503Z,54.80
2022-09-06T19:19:28.582Z,55.10
2022-09-06T19:26:55.192Z,55.20
2022-09-06T19:29:23.805Z,55.30
2022-09-06T19:31:53.011Z,55.50
2022-09-06T19:34:21.980Z,55.50
2022-09-06T19:36:55.118Z,55.60
2022-09-06T19:44:30.799Z,55.80
2022-09-06T19:46:59.930Z,55.90
2022-09-06T19:52:00.468Z,56.00
2022-09-06T19:54:28.932Z,56.20
2022-09-06T19:56:57.751Z,56.30
2022-09-06T19:59:26.481Z,56.40
2022-09-06T20:01:54.939Z,56.60
2022-09-06T20:04:23.676Z,56.80
2022-09-06T20:06:52.047Z,57.00
2022-09-06T20:09:22.036Z,57.10
2022-09-06T20:11:50.609Z,57.30
2022-09-06T20:14:19.018Z,57.30
2022-09-06T20:16:47.449Z,57.50
2022-09-06T20:21:45.276Z,57.90
2022-09-06T20:24:13.714Z,57.90
2022-09-06T20:26:43.705Z,58.00
2022-09-06T20:29:12.143Z,58.00
2022-09-06T20:31:40.922Z,58.10
2022-09-06T20:34:09.396Z,58.20
2022-09-06T20:36:37.835Z,58.20
2022-09-06T20:39:06.841Z,58.40
2022-09-06T20:44:05.529Z,58.50
2022-09-06T20:46:36.003Z,58.60
2022-09-06T20:49:06.602Z,56.90
2022-09-06T20:51:38.660Z,58.80
2022-09-06T20:54:07.667Z,58.90
2022-09-06T20:56:39.376Z,59.00
2022-09-06T20:59:11.016Z,59.20
2022-09-06T21:01:44.186Z,59.30
2022-09-06T21:04:15.213Z,59.50
2022-09-06T21:06:45.811Z,59.70
2022-09-06T21:09:15.678Z,59.70
2022-09-06T21:11:45.185Z,60.00
2022-09-06T21:14:15.084Z,60.10
2022-09-06T21:16:43.574Z,60.30
2022-09-06T21:19:13.488Z,60.50
2022-09-06T21:21:42.274Z,60.70
2022-09-06T21:24:11.842Z,60.90
2022-09-06T21:26:40.901Z,61.10
2022-09-06T21:29:09.482Z,61.20
2022-09-06T21:31:39.375Z,61.50
2022-09-06T21:34:15.625Z,61.60
2022-09-06T21:36:45.390Z,61.70
2022-09-06T21:39:14.254Z,61.80
2022-09-06T21:41:44.716Z,62.00
2022-09-06T21:44:13.321Z,62.20
2022-09-06T21:46:43.800Z,62.50
2022-09-06T21:49:14.691Z,62.80
2022-09-06T21:51:43.934Z,63.10
2022-09-06T21:54:12.616Z,63.30
2022-09-06T21:56:41.846Z,63.60
2022-09-06T21:59:11.054Z,63.80
2022-09-06T22:01:45.082Z,64.00
2022-09-06T22:04:14.761Z,64.20
2022-09-06T22:06:43.260Z,64.40
2022-09-06T22:09:13.228Z,64.50
2022-09-06T22:11:43.751Z,64.70
2022-09-06T22:14:14.599Z,64.90
2022-09-06T22:16:44.836Z,65.20
2022-09-06T22:19:13.635Z,65.50
2022-09-06T22:21:42.065Z,65.80
2022-09-06T22:24:14.203Z,66.00
2022-09-06T22:26:43.036Z,66.00
2022-09-06T22:29:15.025Z,66.10
2022-09-06T22:31:46.077Z,66.20
2022-09-06T22:34:14.620Z,66.30
2022-09-06T22:36:43.315Z,66.30
2022-09-06T22:39:11.780Z,66.40
2022-09-06T22:44:09.158Z,66.40
2022-09-06T22:46:38.270Z,66.40
2022-09-06T22:49:08.385Z,66.40
2022-09-06T22:54:06.283Z,66.60
2022-09-06T22:56:35.891Z,66.70
2022-09-06T22:59:04.897Z,66.90
2022-09-06T23:01:38.913Z,66.90
2022-09-06T23:04:10.037Z,66.90
2022-09-06T23:06:38.769Z,67.00
2022-09-06T23:09:07.492Z,66.90
2022-09-06T23:14:05.030Z,66.90
2022-09-06T23:16:33.751Z,67.00
2022-09-06T23:21:32.409Z,67.00
2022-09-06T23:24:00.816Z,67.10
2022-09-06T23:26:31.992Z,67.10
2022-09-06T23:29:00.716Z,67.20
2022-09-06T23:31:32.642Z,67.20
2022-09-06T23:34:02.717Z,67.50
2022-09-06T23:36:33.210Z,67.60
2022-09-06T23:39:02.535Z,67.70
2022-09-06T23:41:31.365Z,67.80
2022-09-06T23:46:29.085Z,68.00
2022-09-06T23:48:57.701Z,68.00
2022-09-06T23:53:56.343Z,68.20
2022-09-06T23:56:24.747Z,68.20
2022-09-06T23:58:53.198Z,68.00
